sensor_id;sensor_type;location;lat;lon;timestamp;pressure;altitude;pressure_sealevel;temperature
10058;BMP180;5068;51.286;7.518;2023-11-19T00:01:01;98755.00;;;12.60
10058;BMP180;5068;51.286;7.518;2023-11-19T00:02:38;98744.00;;;12.60
10058;BMP180;5068;51.286;7.518;2023-11-19T00:04:10;98746.00;;;12.60
10058;BMP180;5068;51.286;7.518;2023-11-19T00:05:44;98734.00;;;12.60
10058;BMP180;5068;51.286;7.518;2023-11-19T00:07:17;98729.00;;;12.60
10058;BMP180;5068;51.286;7.518;2023-11-19T00:08:52;98732.00;;;12.60
10058;BMP180;5068;51.286;7.518;2023-11-19T00:10:25;98730.00;;;12.60
10058;BMP180;5068;51.286;7.518;2023-11-19T00:12:00;98728.00;;;12.60
10058;BMP180;5068;51.286;7.518;2023-11-19T00:13:33;98723.00;;;12.70
10058;BMP180;5068;51.286;7.518;2023-11-19T00:15:07;98725.00;;;12.70
10058;BMP180;5068;51.286;7.518;2023-11-19T00:16:43;98712.00;;;12.70
10058;BMP180;5068;51.286;7.518;2023-11-19T00:18:16;98718.00;;;12.70
10058;BMP180;5068;51.286;7.518;2023-11-19T00:19:48;98716.00;;;12.70
10058;BMP180;5068;51.286;7.518;2023-11-19T00:21:23;98707.00;;;12.70
10058;BMP180;5068;51.286;7.518;2023-11-19T00:22:55;98700.00;;;12.70
10058;BMP180;5068;51.286;7.518;2023-11-19T00:24:29;98711.00;;;12.80
10058;BMP180;5068;51.286;7.518;2023-11-19T00:26:01;98712.00;;;12.80
10058;BMP180;5068;51.286;7.518;2023-11-19T00:27:38;98706.00;;;12.80
10058;BMP180;5068;51.286;7.518;2023-11-19T00:29:11;98709.00;;;12.80
10058;BMP180;5068;51.286;7.518;2023-11-19T00:30:46;98708.00;;;12.80
10058;BMP180;5068;51.286;7.518;2023-11-19T00:32:19;98704.00;;;12.90
10058;BMP180;5068;51.286;7.518;2023-11-19T00:33:52;98704.00;;;12.90
10058;BMP180;5068;51.286;7.518;2023-11-19T00:35:25;98700.00;;;12.90
10058;BMP180;5068;51.286;7.518;2023-11-19T00:36:58;98695.00;;;12.90
10058;BMP180;5068;51.286;7.518;2023-11-19T00:38:30;98697.00;;;12.90
10058;BMP180;5068;51.286;7.518;2023-11-19T00:40:05;98686.00;;;12.90
10058;BMP180;5068;51.286;7.518;2023-11-19T00:41:38;98685.00;;;12.90
10058;BMP180;5068;51.286;7.518;2023-11-19T00:43:13;98700.00;;;13.00
10058;BMP180;5068;51.286;7.518;2023-11-19T00:44:46;98707.00;;;13.00
10058;BMP180;5068;51.286;7.518;2023-11-19T00:46:22;98702.00;;;13.00
10058;BMP180;5068;51.286;7.518;2023-11-19T00:47:54;98692.00;;;13.00
10058;BMP180;5068;51.286;7.518;2023-11-19T00:49:28;98704.00;;;13.00
10058;BMP180;5068;51.286;7.518;2023-11-19T00:51:01;98707.00;;;13.00
10058;BMP180;5068;51.286;7.518;2023-11-19T00:52:34;98706.00;;;13.00
10058;BMP180;5068;51.286;7.518;2023-11-19T00:54:07;98699.00;;;13.10
10058;BMP180;5068;51.286;7.518;2023-11-19T00:55:41;98701.00;;;13.10
10058;BMP180;5068;51.286;7.518;2023-11-19T00:57:16;98702.00;;;13.10
10058;BMP180;5068;51.286;7.518;2023-11-19T00:58:50;98700.00;;;13.10
10058;BMP180;5068;51.286;7.518;2023-11-19T01:00:22;98706.00;;;13.20
10058;BMP180;5068;51.286;7.518;2023-11-19T01:01:56;98701.00;;;13.20
10058;BMP180;5068;51.286;7.518;2023-11-19T01:03:28;98698.00;;;13.20
10058;BMP180;5068;51.286;7.518;2023-11-19T01:05:02;98690.00;;;13.20
10058;BMP180;5068;51.286;7.518;2023-11-19T01:06:34;98697.00;;;13.20
10058;BMP180;5068;51.286;7.518;2023-11-19T01:08:20;98698.00;;;13.30
10058;BMP180;5068;51.286;7.518;2023-11-19T01:09:53;98693.00;;;13.30
10058;BMP180;5068;51.286;7.518;2023-11-19T01:11:26;98683.00;;;13.30
10058;BMP180;5068;51.286;7.518;2023-11-19T01:13:00;98677.00;;;13.30
10058;BMP180;5068;51.286;7.518;2023-11-19T01:14:34;98680.00;;;13.30
10058;BMP180;5068;51.286;7.518;2023-11-19T01:16:08;98681.00;;;13.30
10058;BMP180;5068;51.286;7.518;2023-11-19T01:17:41;98671.00;;;13.30
10058;BMP180;5068;51.286;7.518;2023-11-19T01:19:24;98673.00;;;13.40
10058;BMP180;5068;51.286;7.518;2023-11-19T01:20:57;98680.00;;;13.40
10058;BMP180;5068;51.286;7.518;2023-11-19T01:22:30;98667.00;;;13.40
10058;BMP180;5068;51.286;7.518;2023-11-19T01:24:03;98672.00;;;13.40
10058;BMP180;5068;51.286;7.518;2023-11-19T01:25:38;98667.00;;;13.40
10058;BMP180;5068;51.286;7.518;2023-11-19T01:27:11;98675.00;;;13.40
10058;BMP180;5068;51.286;7.518;2023-11-19T01:28:43;98681.00;;;13.40
10058;BMP180;5068;51.286;7.518;2023-11-19T01:30:23;98689.00;;;13.40
10058;BMP180;5068;51.286;7.518;2023-11-19T01:31:56;98691.00;;;13.40
10058;BMP180;5068;51.286;7.518;2023-11-19T01:33:28;98682.00;;;13.40
10058;BMP180;5068;51.286;7.518;2023-11-19T01:35:01;98687.00;;;13.40
10058;BMP180;5068;51.286;7.518;2023-11-19T01:36:34;98692.00;;;13.40
10058;BMP180;5068;51.286;7.518;2023-11-19T01:38:08;98682.00;;;13.40
10058;BMP180;5068;51.286;7.518;2023-11-19T01:39:43;98688.00;;;13.40
10058;BMP180;5068;51.286;7.518;2023-11-19T01:41:17;98680.00;;;13.40
10058;BMP180;5068;51.286;7.518;2023-11-19T01:42:50;98679.00;;;13.40
10058;BMP180;5068;51.286;7.518;2023-11-19T01:44:22;98688.00;;;13.40
10058;BMP180;5068;51.286;7.518;2023-11-19T01:45:57;98688.00;;;13.40
10058;BMP180;5068;51.286;7.518;2023-11-19T01:47:30;98679.00;;;13.40
10058;BMP180;5068;51.286;7.518;2023-11-19T01:49:05;98683.00;;;13.40
10058;BMP180;5068;51.286;7.518;2023-11-19T01:50:38;98686.00;;;13.40
10058;BMP180;5068;51.286;7.518;2023-11-19T01:52:11;98682.00;;;13.40
10058;BMP180;5068;51.286;7.518;2023-11-19T01:53:45;98676.00;;;13.50
10058;BMP180;5068;51.286;7.518;2023-11-19T01:55:19;98675.00;;;13.50
10058;BMP180;5068;51.286;7.518;2023-11-19T01:56:53;98661.00;;;13.50
10058;BMP180;5068;51.286;7.518;2023-11-19T01:58:29;98652.00;;;13.40
10058;BMP180;5068;51.286;7.518;2023-11-19T02:00:03;98645.00;;;13.40
10058;BMP180;5068;51.286;7.518;2023-11-19T02:01:46;98650.00;;;13.40
10058;BMP180;5068;51.286;7.518;2023-11-19T02:03:19;98645.00;;;13.40
10058;BMP180;5068;51.286;7.518;2023-11-19T02:04:53;98665.00;;;13.40
10058;BMP180;5068;51.286;7.518;2023-11-19T02:06:27;98656.00;;;13.30
10058;BMP180;5068;51.286;7.518;2023-11-19T02:08:01;98655.00;;;13.30
10058;BMP180;5068;51.286;7.518;2023-11-19T02:09:34;98656.00;;;13.40
10058;BMP180;5068;51.286;7.518;2023-11-19T02:11:08;98652.00;;;13.40
10058;BMP180;5068;51.286;7.518;2023-11-19T02:12:41;98649.00;;;13.40
10058;BMP180;5068;51.286;7.518;2023-11-19T02:14:16;98642.00;;;13.40
10058;BMP180;5068;51.286;7.518;2023-11-19T02:15:49;98656.00;;;13.40
10058;BMP180;5068;51.286;7.518;2023-11-19T02:17:28;98655.00;;;13.40
10058;BMP180;5068;51.286;7.518;2023-11-19T02:19:01;98647.00;;;13.50
10058;BMP180;5068;51.286;7.518;2023-11-19T02:20:35;98649.00;;;13.50
10058;BMP180;5068;51.286;7.518;2023-11-19T02:22:08;98651.00;;;13.50
10058;BMP180;5068;51.286;7.518;2023-11-19T02:23:41;98662.00;;;13.50
10058;BMP180;5068;51.286;7.518;2023-11-19T02:25:20;98642.00;;;13.50
10058;BMP180;5068;51.286;7.518;2023-11-19T02:27:02;98669.00;;;13.50
10058;BMP180;5068;51.286;7.518;2023-11-19T02:28:39;98654.00;;;13.50
10058;BMP180;5068;51.286;7.518;2023-11-19T02:30:12;98662.00;;;13.50
10058;BMP180;5068;51.286;7.518;2023-11-19T02:31:46;98656.00;;;13.50
10058;BMP180;5068;51.286;7.518;2023-11-19T02:33:20;98648.00;;;13.50
10058;BMP180;5068;51.286;7.518;2023-11-19T02:34:52;98636.00;;;13.60
10058;BMP180;5068;51.286;7.518;2023-11-19T02:36:39;98634.00;;;13.60
10058;BMP180;5068;51.286;7.518;2023-11-19T02:38:13;98636.00;;;13.60
10058;BMP180;5068;51.286;7.518;2023-11-19T02:39:47;98644.00;;;13.70
10058;BMP180;5068;51.286;7.518;2023-11-19T02:41:19;98641.00;;;13.70
10058;BMP180;5068;51.286;7.518;2023-11-19T02:42:53;98624.00;;;13.80
10058;BMP180;5068;51.286;7.518;2023-11-19T02:44:30;98616.00;;;13.80
10058;BMP180;5068;51.286;7.518;2023-11-19T02:46:04;98605.00;;;13.80
10058;BMP180;5068;51.286;7.518;2023-11-19T02:47:47;98608.00;;;13.90
10058;BMP180;5068;51.286;7.518;2023-11-19T02:49:21;98593.00;;;13.90
10058;BMP180;5068;51.286;7.518;2023-11-19T02:50:54;98579.00;;;13.90
10058;BMP180;5068;51.286;7.518;2023-11-19T02:52:30;98586.00;;;14.00
10058;BMP180;5068;51.286;7.518;2023-11-19T02:54:07;98602.00;;;14.00
10058;BMP180;5068;51.286;7.518;2023-11-19T02:55:40;98601.00;;;14.00
10058;BMP180;5068;51.286;7.518;2023-11-19T02:57:13;98591.00;;;14.10
10058;BMP180;5068;51.286;7.518;2023-11-19T02:58:49;98602.00;;;14.10
10058;BMP180;5068;51.286;7.518;2023-11-19T03:00:23;98602.00;;;14.10
10058;BMP180;5068;51.286;7.518;2023-11-19T03:02:03;98590.00;;;14.20
10058;BMP180;5068;51.286;7.518;2023-11-19T03:03:36;98591.00;;;14.20
10058;BMP180;5068;51.286;7.518;2023-11-19T03:05:13;98590.00;;;14.20
10058;BMP180;5068;51.286;7.518;2023-11-19T03:06:47;98598.00;;;14.30
10058;BMP180;5068;51.286;7.518;2023-11-19T03:08:20;98590.00;;;14.30
10058;BMP180;5068;51.286;7.518;2023-11-19T03:09:54;98586.00;;;14.30
10058;BMP180;5068;51.286;7.518;2023-11-19T03:11:28;98583.00;;;14.40
10058;BMP180;5068;51.286;7.518;2023-11-19T03:13:02;98587.00;;;14.40
10058;BMP180;5068;51.286;7.518;2023-11-19T03:14:34;98580.00;;;14.40
10058;BMP180;5068;51.286;7.518;2023-11-19T03:16:09;98591.00;;;14.40
10058;BMP180;5068;51.286;7.518;2023-11-19T03:17:43;98585.00;;;14.50
10058;BMP180;5068;51.286;7.518;2023-11-19T03:19:16;98594.00;;;14.50
10058;BMP180;5068;51.286;7.518;2023-11-19T03:20:57;98589.00;;;14.50
10058;BMP180;5068;51.286;7.518;2023-11-19T03:22:30;98588.00;;;14.50
10058;BMP180;5068;51.286;7.518;2023-11-19T03:24:03;98580.00;;;14.50
10058;BMP180;5068;51.286;7.518;2023-11-19T03:25:37;98591.00;;;14.60
10058;BMP180;5068;51.286;7.518;2023-11-19T03:27:09;98593.00;;;14.60
10058;BMP180;5068;51.286;7.518;2023-11-19T03:28:43;98593.00;;;14.60
10058;BMP180;5068;51.286;7.518;2023-11-19T03:30:16;98585.00;;;14.60
10058;BMP180;5068;51.286;7.518;2023-11-19T03:31:51;98595.00;;;14.70
10058;BMP180;5068;51.286;7.518;2023-11-19T03:33:23;98580.00;;;14.70
10058;BMP180;5068;51.286;7.518;2023-11-19T03:34:58;98591.00;;;14.70
10058;BMP180;5068;51.286;7.518;2023-11-19T03:36:32;98597.00;;;14.70
10058;BMP180;5068;51.286;7.518;2023-11-19T03:38:05;98582.00;;;14.80
10058;BMP180;5068;51.286;7.518;2023-11-19T03:39:39;98573.00;;;14.80
10058;BMP180;5068;51.286;7.518;2023-11-19T03:41:11;98564.00;;;14.80
10058;BMP180;5068;51.286;7.518;2023-11-19T03:42:45;98570.00;;;14.80
10058;BMP180;5068;51.286;7.518;2023-11-19T03:44:18;98579.00;;;14.80
10058;BMP180;5068;51.286;7.518;2023-11-19T03:45:51;98573.00;;;14.80
10058;BMP180;5068;51.286;7.518;2023-11-19T03:47:26;98583.00;;;14.80
10058;BMP180;5068;51.286;7.518;2023-11-19T03:48:58;98574.00;;;14.80
10058;BMP180;5068;51.286;7.518;2023-11-19T03:50:32;98580.00;;;14.90
10058;BMP180;5068;51.286;7.518;2023-11-19T03:52:04;98575.00;;;14.90
10058;BMP180;5068;51.286;7.518;2023-11-19T03:53:51;98582.00;;;14.90
10058;BMP180;5068;51.286;7.518;2023-11-19T03:55:24;98584.00;;;14.90
10058;BMP180;5068;51.286;7.518;2023-11-19T03:56:56;98585.00;;;14.90
10058;BMP180;5068;51.286;7.518;2023-11-19T03:58:29;98582.00;;;15.00
10058;BMP180;5068;51.286;7.518;2023-11-19T04:00:02;98587.00;;;15.00
10058;BMP180;5068;51.286;7.518;2023-11-19T04:01:43;98598.00;;;15.00
10058;BMP180;5068;51.286;7.518;2023-11-19T04:03:17;98600.00;;;15.00
10058;BMP180;5068;51.286;7.518;2023-11-19T04:04:51;98604.00;;;15.00
10058;BMP180;5068;51.286;7.518;2023-11-19T04:06:23;98602.00;;;15.10
10058;BMP180;5068;51.286;7.518;2023-11-19T04:07:57;98603.00;;;15.10
10058;BMP180;5068;51.286;7.518;2023-11-19T04:09:30;98592.00;;;15.10
10058;BMP180;5068;51.286;7.518;2023-11-19T04:11:04;98606.00;;;15.10
10058;BMP180;5068;51.286;7.518;2023-11-19T04:12:37;98590.00;;;15.10
10058;BMP180;5068;51.286;7.518;2023-11-19T04:14:09;98601.00;;;15.10
10058;BMP180;5068;51.286;7.518;2023-11-19T04:15:42;98602.00;;;15.10
10058;BMP180;5068;51.286;7.518;2023-11-19T04:17:15;98605.00;;;15.10
10058;BMP180;5068;51.286;7.518;2023-11-19T04:18:50;98607.00;;;15.10
10058;BMP180;5068;51.286;7.518;2023-11-19T04:20:22;98615.00;;;15.10
10058;BMP180;5068;51.286;7.518;2023-11-19T04:21:55;98615.00;;;15.20
10058;BMP180;5068;51.286;7.518;2023-11-19T04:23:28;98620.00;;;15.20
10058;BMP180;5068;51.286;7.518;2023-11-19T04:25:01;98612.00;;;15.20
10058;BMP180;5068;51.286;7.518;2023-11-19T04:26:34;98620.00;;;15.20
10058;BMP180;5068;51.286;7.518;2023-11-19T04:28:08;98627.00;;;15.20
10058;BMP180;5068;51.286;7.518;2023-11-19T04:29:41;98617.00;;;15.20
10058;BMP180;5068;51.286;7.518;2023-11-19T04:31:14;98626.00;;;15.20
10058;BMP180;5068;51.286;7.518;2023-11-19T04:32:48;98616.00;;;15.20
10058;BMP180;5068;51.286;7.518;2023-11-19T04:34:23;98627.00;;;15.20
10058;BMP180;5068;51.286;7.518;2023-11-19T04:35:55;98618.00;;;15.20
10058;BMP180;5068;51.286;7.518;2023-11-19T04:37:29;98619.00;;;15.20
10058;BMP180;5068;51.286;7.518;2023-11-19T04:39:02;98620.00;;;15.20
10058;BMP180;5068;51.286;7.518;2023-11-19T04:40:35;98616.00;;;15.20
10058;BMP180;5068;51.286;7.518;2023-11-19T04:42:08;98614.00;;;15.20
10058;BMP180;5068;51.286;7.518;2023-11-19T04:43:40;98615.00;;;15.20
10058;BMP180;5068;51.286;7.518;2023-11-19T04:45:14;98614.00;;;15.20
10058;BMP180;5068;51.286;7.518;2023-11-19T04:46:48;98598.00;;;15.20
10058;BMP180;5068;51.286;7.518;2023-11-19T04:48:21;98598.00;;;15.20
10058;BMP180;5068;51.286;7.518;2023-11-19T04:49:55;98593.00;;;15.20
10058;BMP180;5068;51.286;7.518;2023-11-19T04:51:29;98607.00;;;15.20
10058;BMP180;5068;51.286;7.518;2023-11-19T04:53:01;98618.00;;;15.20
10058;BMP180;5068;51.286;7.518;2023-11-19T04:54:35;98618.00;;;15.20
10058;BMP180;5068;51.286;7.518;2023-11-19T04:56:09;98622.00;;;15.20
10058;BMP180;5068;51.286;7.518;2023-11-19T04:57:42;98616.00;;;15.10
10058;BMP180;5068;51.286;7.518;2023-11-19T04:59:16;98616.00;;;15.10
10058;BMP180;5068;51.286;7.518;2023-11-19T05:00:48;98623.00;;;15.10
10058;BMP180;5068;51.286;7.518;2023-11-19T05:02:21;98617.00;;;15.20
10058;BMP180;5068;51.286;7.518;2023-11-19T05:03:53;98621.00;;;15.20
10058;BMP180;5068;51.286;7.518;2023-11-19T05:05:28;98615.00;;;15.20
10058;BMP180;5068;51.286;7.518;2023-11-19T05:07:01;98623.00;;;15.20
10058;BMP180;5068;51.286;7.518;2023-11-19T05:08:35;98617.00;;;15.10
10058;BMP180;5068;51.286;7.518;2023-11-19T05:10:08;98611.00;;;15.20
10058;BMP180;5068;51.286;7.518;2023-11-19T05:11:42;98615.00;;;15.20
10058;BMP180;5068;51.286;7.518;2023-11-19T05:13:18;98627.00;;;15.20
10058;BMP180;5068;51.286;7.518;2023-11-19T05:14:51;98611.00;;;15.20
10058;BMP180;5068;51.286;7.518;2023-11-19T05:16:23;98615.00;;;15.20
10058;BMP180;5068;51.286;7.518;2023-11-19T05:17:57;98606.00;;;15.20
10058;BMP180;5068;51.286;7.518;2023-11-19T05:19:30;98603.00;;;15.20
10058;BMP180;5068;51.286;7.518;2023-11-19T05:21:05;98613.00;;;15.20
10058;BMP180;5068;51.286;7.518;2023-11-19T05:22:39;98628.00;;;15.20
10058;BMP180;5068;51.286;7.518;2023-11-19T05:24:11;98633.00;;;15.20
10058;BMP180;5068;51.286;7.518;2023-11-19T05:25:45;98624.00;;;15.20
10058;BMP180;5068;51.286;7.518;2023-11-19T05:27:17;98625.00;;;15.20
10058;BMP180;5068;51.286;7.518;2023-11-19T05:28:51;98626.00;;;15.30
10058;BMP180;5068;51.286;7.518;2023-11-19T05:30:23;98630.00;;;15.30
10058;BMP180;5068;51.286;7.518;2023-11-19T05:31:56;98624.00;;;15.30
10058;BMP180;5068;51.286;7.518;2023-11-19T05:33:29;98616.00;;;15.30
10058;BMP180;5068;51.286;7.518;2023-11-19T05:35:03;98617.00;;;15.30
10058;BMP180;5068;51.286;7.518;2023-11-19T05:36:38;98627.00;;;15.20
10058;BMP180;5068;51.286;7.518;2023-11-19T05:38:11;98635.00;;;15.20
10058;BMP180;5068;51.286;7.518;2023-11-19T05:39:45;98622.00;;;15.20
10058;BMP180;5068;51.286;7.518;2023-11-19T05:41:18;98633.00;;;15.20
10058;BMP180;5068;51.286;7.518;2023-11-19T05:42:50;98622.00;;;15.20
10058;BMP180;5068;51.286;7.518;2023-11-19T05:44:24;98632.00;;;15.20
10058;BMP180;5068;51.286;7.518;2023-11-19T05:45:56;98624.00;;;15.10
10058;BMP180;5068;51.286;7.518;2023-11-19T05:47:29;98633.00;;;15.10
10058;BMP180;5068;51.286;7.518;2023-11-19T05:49:02;98640.00;;;15.10
10058;BMP180;5068;51.286;7.518;2023-11-19T05:50:35;98631.00;;;15.10
10058;BMP180;5068;51.286;7.518;2023-11-19T05:52:09;98625.00;;;15.10
10058;BMP180;5068;51.286;7.518;2023-11-19T05:53:44;98620.00;;;15.10
10058;BMP180;5068;51.286;7.518;2023-11-19T05:55:17;98631.00;;;15.10
10058;BMP180;5068;51.286;7.518;2023-11-19T05:56:51;98623.00;;;15.10
10058;BMP180;5068;51.286;7.518;2023-11-19T05:58:26;98633.00;;;15.10
10058;BMP180;5068;51.286;7.518;2023-11-19T06:00:01;98635.00;;;15.10
10058;BMP180;5068;51.286;7.518;2023-11-19T06:01:42;98642.00;;;15.10
10058;BMP180;5068;51.286;7.518;2023-11-19T06:03:16;98638.00;;;15.10
10058;BMP180;5068;51.286;7.518;2023-11-19T06:04:48;98627.00;;;15.10
10058;BMP180;5068;51.286;7.518;2023-11-19T06:06:21;98643.00;;;15.10
10058;BMP180;5068;51.286;7.518;2023-11-19T06:07:55;98640.00;;;15.10
10058;BMP180;5068;51.286;7.518;2023-11-19T06:09:29;98631.00;;;15.10
10058;BMP180;5068;51.286;7.518;2023-11-19T06:11:01;98634.00;;;15.10
10058;BMP180;5068;51.286;7.518;2023-11-19T06:12:35;98647.00;;;15.10
10058;BMP180;5068;51.286;7.518;2023-11-19T06:14:10;98638.00;;;15.00
10058;BMP180;5068;51.286;7.518;2023-11-19T06:15:44;98639.00;;;15.10
10058;BMP180;5068;51.286;7.518;2023-11-19T06:17:16;98651.00;;;15.00
10058;BMP180;5068;51.286;7.518;2023-11-19T06:18:49;98644.00;;;15.00
10058;BMP180;5068;51.286;7.518;2023-11-19T06:20:22;98645.00;;;15.00
10058;BMP180;5068;51.286;7.518;2023-11-19T06:21:55;98643.00;;;15.00
10058;BMP180;5068;51.286;7.518;2023-11-19T06:23:29;98643.00;;;15.00
10058;BMP180;5068;51.286;7.518;2023-11-19T06:25:02;98647.00;;;15.00
10058;BMP180;5068;51.286;7.518;2023-11-19T06:26:39;98642.00;;;15.00
10058;BMP180;5068;51.286;7.518;2023-11-19T06:28:12;98656.00;;;15.00
10058;BMP180;5068;51.286;7.518;2023-11-19T06:29:45;98651.00;;;14.90
10058;BMP180;5068;51.286;7.518;2023-11-19T06:31:18;98648.00;;;14.90
10058;BMP180;5068;51.286;7.518;2023-11-19T06:32:51;98659.00;;;14.90
10058;BMP180;5068;51.286;7.518;2023-11-19T06:34:25;98652.00;;;14.90
10058;BMP180;5068;51.286;7.518;2023-11-19T06:35:57;98657.00;;;15.00
10058;BMP180;5068;51.286;7.518;2023-11-19T06:37:41;98642.00;;;15.00
10058;BMP180;5068;51.286;7.518;2023-11-19T06:39:20;98644.00;;;14.90
10058;BMP180;5068;51.286;7.518;2023-11-19T06:40:54;98644.00;;;14.90
10058;BMP180;5068;51.286;7.518;2023-11-19T06:42:26;98642.00;;;14.90
10058;BMP180;5068;51.286;7.518;2023-11-19T06:43:59;98641.00;;;14.90
10058;BMP180;5068;51.286;7.518;2023-11-19T06:45:32;98644.00;;;14.90
10058;BMP180;5068;51.286;7.518;2023-11-19T06:47:05;98628.00;;;14.90
10058;BMP180;5068;51.286;7.518;2023-11-19T06:48:38;98640.00;;;14.90
10058;BMP180;5068;51.286;7.518;2023-11-19T06:50:11;98630.00;;;14.90
10058;BMP180;5068;51.286;7.518;2023-11-19T06:51:44;98636.00;;;14.90
10058;BMP180;5068;51.286;7.518;2023-11-19T06:53:18;98633.00;;;14.80
10058;BMP180;5068;51.286;7.518;2023-11-19T06:54:52;98638.00;;;14.80
10058;BMP180;5068;51.286;7.518;2023-11-19T06:56:39;98643.00;;;14.80
10058;BMP180;5068;51.286;7.518;2023-11-19T06:58:13;98647.00;;;14.80
10058;BMP180;5068;51.286;7.518;2023-11-19T06:59:45;98654.00;;;14.80
10058;BMP180;5068;51.286;7.518;2023-11-19T07:01:19;98653.00;;;14.80
10058;BMP180;5068;51.286;7.518;2023-11-19T07:02:51;98649.00;;;14.70
10058;BMP180;5068;51.286;7.518;2023-11-19T07:04:25;98655.00;;;14.70
10058;BMP180;5068;51.286;7.518;2023-11-19T07:05:57;98658.00;;;14.80
10058;BMP180;5068;51.286;7.518;2023-11-19T07:07:31;98660.00;;;14.70
10058;BMP180;5068;51.286;7.518;2023-11-19T07:09:04;98668.00;;;14.80
10058;BMP180;5068;51.286;7.518;2023-11-19T07:10:42;98671.00;;;14.70
10058;BMP180;5068;51.286;7.518;2023-11-19T07:12:15;98671.00;;;14.80
10058;BMP180;5068;51.286;7.518;2023-11-19T07:13:48;98665.00;;;14.80
10058;BMP180;5068;51.286;7.518;2023-11-19T07:15:22;98662.00;;;14.70
10058;BMP180;5068;51.286;7.518;2023-11-19T07:16:55;98661.00;;;14.80
10058;BMP180;5068;51.286;7.518;2023-11-19T07:18:28;98664.00;;;14.70
10058;BMP180;5068;51.286;7.518;2023-11-19T07:20:01;98662.00;;;14.70
10058;BMP180;5068;51.286;7.518;2023-11-19T07:21:34;98675.00;;;14.70
10058;BMP180;5068;51.286;7.518;2023-11-19T07:23:11;98666.00;;;14.70
10058;BMP180;5068;51.286;7.518;2023-11-19T07:24:44;98661.00;;;14.70
10058;BMP180;5068;51.286;7.518;2023-11-19T07:26:19;98682.00;;;14.70
10058;BMP180;5068;51.286;7.518;2023-11-19T07:27:52;98660.00;;;14.70
10058;BMP180;5068;51.286;7.518;2023-11-19T07:29:25;98684.00;;;14.70
10058;BMP180;5068;51.286;7.518;2023-11-19T07:31:01;98686.00;;;14.70
10058;BMP180;5068;51.286;7.518;2023-11-19T07:32:34;98683.00;;;14.70
10058;BMP180;5068;51.286;7.518;2023-11-19T07:34:07;98684.00;;;14.70
10058;BMP180;5068;51.286;7.518;2023-11-19T07:35:42;98674.00;;;14.70
10058;BMP180;5068;51.286;7.518;2023-11-19T07:37:14;98675.00;;;14.70
10058;BMP180;5068;51.286;7.518;2023-11-19T07:38:48;98691.00;;;14.70
10058;BMP180;5068;51.286;7.518;2023-11-19T07:40:22;98683.00;;;14.70
10058;BMP180;5068;51.286;7.518;2023-11-19T07:41:58;98682.00;;;14.70
10058;BMP180;5068;51.286;7.518;2023-11-19T07:43:30;98694.00;;;14.70
10058;BMP180;5068;51.286;7.518;2023-11-19T07:45:05;98699.00;;;14.70
10058;BMP180;5068;51.286;7.518;2023-11-19T07:46:39;98701.00;;;14.80
10058;BMP180;5068;51.286;7.518;2023-11-19T07:48:14;98695.00;;;14.80
10058;BMP180;5068;51.286;7.518;2023-11-19T07:49:47;98692.00;;;14.70
10058;BMP180;5068;51.286;7.518;2023-11-19T07:51:20;98706.00;;;14.70
10058;BMP180;5068;51.286;7.518;2023-11-19T07:52:53;98702.00;;;14.70
10058;BMP180;5068;51.286;7.518;2023-11-19T07:54:27;98706.00;;;14.70
10058;BMP180;5068;51.286;7.518;2023-11-19T07:55:59;98700.00;;;14.70
10058;BMP180;5068;51.286;7.518;2023-11-19T07:57:34;98696.00;;;14.70
10058;BMP180;5068;51.286;7.518;2023-11-19T07:59:07;98703.00;;;14.70
10058;BMP180;5068;51.286;7.518;2023-11-19T08:00:40;98704.00;;;14.60
10058;BMP180;5068;51.286;7.518;2023-11-19T08:02:13;98704.00;;;14.60
10058;BMP180;5068;51.286;7.518;2023-11-19T08:03:47;98706.00;;;14.60
10058;BMP180;5068;51.286;7.518;2023-11-19T08:05:22;98712.00;;;14.60
10058;BMP180;5068;51.286;7.518;2023-11-19T08:06:56;98703.00;;;14.60
10058;BMP180;5068;51.286;7.518;2023-11-19T08:08:30;98704.00;;;14.60
10058;BMP180;5068;51.286;7.518;2023-11-19T08:10:05;98711.00;;;14.60
10058;BMP180;5068;51.286;7.518;2023-11-19T08:11:42;98710.00;;;14.60
10058;BMP180;5068;51.286;7.518;2023-11-19T08:13:17;98719.00;;;14.50
10058;BMP180;5068;51.286;7.518;2023-11-19T08:14:52;98715.00;;;14.50
10058;BMP180;5068;51.286;7.518;2023-11-19T08:16:25;98721.00;;;14.50
10058;BMP180;5068;51.286;7.518;2023-11-19T08:17:59;98725.00;;;14.60
10058;BMP180;5068;51.286;7.518;2023-11-19T08:19:31;98719.00;;;14.50
10058;BMP180;5068;51.286;7.518;2023-11-19T08:21:05;98723.00;;;14.50
10058;BMP180;5068;51.286;7.518;2023-11-19T08:22:37;98727.00;;;14.50
10058;BMP180;5068;51.286;7.518;2023-11-19T08:24:11;98732.00;;;14.50
10058;BMP180;5068;51.286;7.518;2023-11-19T08:25:43;98728.00;;;14.60
10058;BMP180;5068;51.286;7.518;2023-11-19T08:27:17;98722.00;;;14.60
10058;BMP180;5068;51.286;7.518;2023-11-19T08:28:50;98723.00;;;14.60
10058;BMP180;5068;51.286;7.518;2023-11-19T08:30:25;98728.00;;;14.60
10058;BMP180;5068;51.286;7.518;2023-11-19T08:31:57;98723.00;;;14.60
10058;BMP180;5068;51.286;7.518;2023-11-19T08:33:33;98741.00;;;14.60
10058;BMP180;5068;51.286;7.518;2023-11-19T08:35:07;98732.00;;;14.60
10058;BMP180;5068;51.286;7.518;2023-11-19T08:36:39;98749.00;;;14.60
10058;BMP180;5068;51.286;7.518;2023-11-19T08:38:12;98735.00;;;14.60
10058;BMP180;5068;51.286;7.518;2023-11-19T08:39:45;98747.00;;;14.60
10058;BMP180;5068;51.286;7.518;2023-11-19T08:41:18;98742.00;;;14.60
10058;BMP180;5068;51.286;7.518;2023-11-19T08:42:51;98744.00;;;14.60
10058;BMP180;5068;51.286;7.518;2023-11-19T08:44:26;98740.00;;;14.60
10058;BMP180;5068;51.286;7.518;2023-11-19T08:45:58;98742.00;;;14.70
10058;BMP180;5068;51.286;7.518;2023-11-19T08:47:31;98737.00;;;14.70
10058;BMP180;5068;51.286;7.518;2023-11-19T08:49:04;98734.00;;;14.70
10058;BMP180;5068;51.286;7.518;2023-11-19T08:50:37;98735.00;;;14.70
10058;BMP180;5068;51.286;7.518;2023-11-19T08:52:11;98742.00;;;14.70
10058;BMP180;5068;51.286;7.518;2023-11-19T08:53:43;98735.00;;;14.70
10058;BMP180;5068;51.286;7.518;2023-11-19T08:55:17;98734.00;;;14.70
10058;BMP180;5068;51.286;7.518;2023-11-19T08:56:49;98733.00;;;14.70
10058;BMP180;5068;51.286;7.518;2023-11-19T08:58:23;98741.00;;;14.70
10058;BMP180;5068;51.286;7.518;2023-11-19T08:59:56;98743.00;;;14.70
10058;BMP180;5068;51.286;7.518;2023-11-19T09:01:29;98737.00;;;14.70
10058;BMP180;5068;51.286;7.518;2023-11-19T09:03:02;98728.00;;;14.70
10058;BMP180;5068;51.286;7.518;2023-11-19T09:04:36;98737.00;;;14.70
10058;BMP180;5068;51.286;7.518;2023-11-19T09:06:09;98741.00;;;14.80
10058;BMP180;5068;51.286;7.518;2023-11-19T09:07:42;98732.00;;;14.80
10058;BMP180;5068;51.286;7.518;2023-11-19T09:09:15;98741.00;;;14.80